Time;durP1;ratioP1;P1;durP2;ratioP2;P2;SDS_P1;SDS_P2;PMS_P1;PMS_P2;Temp;Humidity;BMP_temperature;BMP_pressure;BME280_temperature;BME280_humidity;BME280_pressure;Samples;Min_cycle;Max_cycle;Signal;HPM_P1;HPM_P2
2022/07/11 00:02:13;;;;;;;1.83;1.40;;;;;;;18.00;nan;101222.00;5051045;28;19912;-83
2022/07/11 00:04:39;;;;;;;1.48;1.30;;;;;;;17.98;nan;101230.19;5076994;28;20029;-84
2022/07/11 00:07:05;;;;;;;1.92;1.40;;;;;;;17.95;nan;101216.38;5077698;28;20051;-84
2022/07/11 00:09:31;;;;;;;1.30;1.15;;;;;;;17.93;nan;101213.88;5059931;28;20036;-83
2022/07/11 00:11:57;;;;;;;2.22;1.40;;;;;;;17.89;nan;101212.56;5039728;28;20121;-83
2022/07/11 00:14:23;;;;;;;2.33;1.50;;;;;;;18.06;nan;101213.22;5070508;28;20402;-83
2022/07/11 00:16:50;;;;;;;2.40;1.45;;;;;;;18.16;nan;101210.25;5046433;28;20531;-84
2022/07/11 00:19:15;;;;;;;1.42;1.27;;;;;;;18.02;nan;101206.59;5059921;28;20033;-84
2022/07/11 00:21:41;;;;;;;1.55;1.25;;;;;;;17.94;nan;101206.66;5058805;28;20036;-84
2022/07/11 00:24:10;;;;;;;1.90;1.40;;;;;;;17.87;nan;101216.44;5040059;28;20033;-84
2022/07/11 00:26:36;;;;;;;2.00;1.60;;;;;;;17.76;nan;101209.69;5069190;28;20052;-84
2022/07/11 00:29:01;;;;;;;2.15;1.50;;;;;;;17.71;nan;101204.00;5044387;28;20033;-84
2022/07/11 00:31:27;;;;;;;1.98;1.50;;;;;;;17.71;nan;101206.69;5058512;28;20036;-84
2022/07/11 00:33:53;;;;;;;1.83;1.65;;;;;;;17.68;nan;101202.53;5058247;28;20060;-84
2022/07/11 00:36:18;;;;;;;1.90;1.65;;;;;;;17.63;nan;101208.44;5056706;28;20041;-84
2022/07/11 00:38:44;;;;;;;2.25;1.80;;;;;;;17.57;nan;101203.81;5046796;28;20052;-84
2022/07/11 00:41:10;;;;;;;2.08;1.58;;;;;;;17.54;nan;101198.84;5069371;28;20039;-84
2022/07/11 00:43:38;;;;;;;2.10;1.38;;;;;;;17.54;nan;101208.69;5052024;28;20033;-84
2022/07/11 00:46:05;;;;;;;2.10;1.23;;;;;;;17.53;nan;101201.69;5072756;28;20747;-84
2022/07/11 00:48:30;;;;;;;1.92;1.50;;;;;;;17.50;nan;101196.72;5046287;28;20622;-84
2022/07/11 00:50:57;;;;;;;2.08;1.60;;;;;;;17.49;nan;101197.72;5047038;28;20049;-84
2022/07/11 00:53:23;;;;;;;2.28;1.50;;;;;;;17.39;nan;101196.13;5053219;28;20028;-85
2022/07/11 00:55:52;;;;;;;2.25;1.60;;;;;;;17.31;nan;101193.53;5051784;28;20553;-84
2022/07/11 00:58:18;;;;;;;2.75;1.80;;;;;;;17.25;nan;101194.22;5049171;28;20103;-84
2022/07/11 01:00:44;;;;;;;2.47;1.77;;;;;;;17.17;nan;101197.81;5033041;28;20067;-84
2022/07/11 01:03:09;;;;;;;2.28;1.40;;;;;;;17.11;nan;101185.16;5049027;28;20096;-84
2022/07/11 01:05:35;;;;;;;1.50;1.40;;;;;;;17.07;nan;101188.38;5046599;28;20048;-84
2022/07/11 01:08:01;;;;;;;2.60;1.30;;;;;;;17.00;nan;101182.09;5050943;28;20028;-84
2022/07/11 01:10:27;;;;;;;2.65;1.70;;;;;;;16.97;nan;101188.59;5057020;28;20514;-85
2022/07/11 01:12:52;;;;;;;2.15;1.63;;;;;;;16.88;nan;101176.31;5075620;28;20043;-85
2022/07/11 01:15:18;;;;;;;3.25;1.80;;;;;;;16.80;nan;101187.84;5060685;28;20220;-85
2022/07/11 01:17:43;;;;;;;2.80;1.90;;;;;;;16.76;nan;101192.69;5055492;28;20089;-85
2022/07/11 01:20:09;;;;;;;3.85;2.22;;;;;;;16.73;nan;101185.06;5075223;28;20033;-85
2022/07/11 01:22:50;;;;;;;2.85;2.05;;;;;;;16.70;nan;101184.56;5039712;28;20104;-84
2022/07/11 01:25:32;;;;;;;2.13;1.90;;;;;;;16.59;nan;101176.94;5057351;28;20060;-84
2022/07/11 01:28:08;;;;;;;3.45;1.80;;;;;;;16.45;nan;101178.53;5047765;28;20028;-84
2022/07/11 01:30:34;;;;;;;3.25;1.73;;;;;;;16.33;nan;101175.41;5049558;28;20032;-85
2022/07/11 01:33:00;;;;;;;2.47;1.73;;;;;;;16.30;nan;101168.59;5058714;28;20047;-84
2022/07/11 01:35:26;;;;;;;1.98;1.60;;;;;;;16.27;nan;101176.09;5049427;28;20029;-84
2022/07/11 01:37:52;;;;;;;2.03;1.60;;;;;;;16.22;nan;101165.94;5050645;28;20036;-84
2022/07/11 01:40:17;;;;;;;2.10;1.63;;;;;;;16.13;nan;101161.63;5056135;28;20040;-84
2022/07/11 01:42:43;;;;;;;3.35;2.00;;;;;;;16.17;nan;101170.97;5043261;28;20037;-84
2022/07/11 01:45:10;;;;;;;3.85;2.22;;;;;;;16.25;nan;101170.91;5038851;28;20063;-84
2022/07/11 01:47:35;;;;;;;2.38;1.88;;;;;;;16.32;nan;101169.22;5039254;28;20698;-84
2022/07/11 01:50:01;;;;;;;1.98;1.48;;;;;;;16.35;nan;101163.56;5038356;28;20124;-84
2022/07/11 01:52:28;;;;;;;3.15;2.05;;;;;;;16.40;nan;101167.53;5037529;28;20120;-84
2022/07/11 01:54:53;;;;;;;2.20;1.88;;;;;;;16.49;nan;101170.00;5044463;28;20171;-84
2022/07/11 01:57:18;;;;;;;1.80;1.60;;;;;;;16.56;nan;101167.44;5051364;28;20071;-84
2022/07/11 01:59:44;;;;;;;3.25;1.60;;;;;;;16.61;nan;101164.25;5070751;28;20043;-84
2022/07/11 02:02:09;;;;;;;1.48;1.25;;;;;;;16.67;nan;101166.22;5055344;28;20125;-84
2022/07/11 02:04:34;;;;;;;1.77;1.30;;;;;;;16.72;nan;101170.03;5075402;28;20043;-84
2022/07/11 02:07:00;;;;;;;1.80;1.45;;;;;;;16.76;nan;101162.50;5056666;28;20025;-84
2022/07/11 02:09:25;;;;;;;2.08;1.60;;;;;;;16.84;nan;101166.97;5046029;28;20043;-84
2022/07/11 02:11:50;;;;;;;2.13;1.73;;;;;;;16.89;nan;101165.44;5062803;28;20387;-84
2022/07/11 02:14:16;;;;;;;3.40;1.90;;;;;;;16.90;nan;101164.44;5052928;28;20032;-84
2022/07/11 02:16:41;;;;;;;3.35;2.00;;;;;;;16.94;nan;101162.22;5073720;28;20055;-84
2022/07/11 02:19:07;;;;;;;3.72;2.10;;;;;;;16.96;nan;101165.56;5053098;28;20052;-84
2022/07/11 02:21:33;;;;;;;3.08;1.80;;;;;;;16.99;nan;101162.53;5050812;28;20029;-84
2022/07/11 02:23:58;;;;;;;2.53;1.73;;;;;;;17.03;nan;101157.66;5050994;28;20037;-84
2022/07/11 02:26:24;;;;;;;2.30;2.10;;;;;;;17.07;nan;101157.13;5054086;28;20601;-84
2022/07/11 02:28:49;;;;;;;2.28;1.60;;;;;;;17.09;nan;101156.94;5050090;28;20054;-84
2022/07/11 02:31:15;;;;;;;2.03;1.52;;;;;;;17.12;nan;101153.94;5057351;28;20094;-84
2022/07/11 02:33:40;;;;;;;;;;;;;;;17.10;nan;101162.13;5056441;28;20037;-84
2022/07/11 02:36:07;;;;;;;;;;;;;;;17.08;nan;101161.47;5075326;28;19920;-84
2022/07/11 02:38:32;;;;;;;;;;;;;;;17.09;nan;101154.25;5058057;28;19944;-84
2022/07/11 02:40:58;;;;;;;;;;;;;;;17.09;nan;101152.44;5057022;28;19916;-85
2022/07/11 02:43:24;;;;;;;;;;;;;;;17.09;nan;101155.13;5079517;28;19916;-85
2022/07/11 02:45:49;;;;;;;;;;;;;;;17.11;nan;101160.25;5079937;28;19912;-84
2022/07/11 02:48:14;;;;;;;;;;;;;;;17.08;nan;101153.44;5050367;28;19920;-84
2022/07/11 02:50:40;;;;;;;;;;;;;;;17.08;nan;101149.94;5055322;28;19916;-84
2022/07/11 02:53:05;;;;;;;;;;;;;;;17.07;nan;101156.31;5060149;28;19916;-85
2022/07/11 02:55:30;;;;;;;;;;;;;;;17.09;nan;101154.25;5061256;28;19924;-85
2022/07/11 02:57:56;;;;;;;;;;;;;;;17.10;nan;101150.59;5060246;28;20015;-84
2022/07/11 03:00:21;;;;;;;;;;;;;;;17.10;nan;101159.44;5060364;28;19924;-84
2022/07/11 03:02:46;;;;;;;;;;;;;;;17.08;nan;101149.94;5079266;28;20355;-84
2022/07/11 03:05:12;;;;;;;;;;;;;;;17.06;nan;101150.13;5056876;28;19921;-84
2022/07/11 03:07:38;;;;;;;;;;;;;;;17.06;nan;101154.63;5077040;28;19987;-84
2022/07/11 03:10:03;;;;;;;;;;;;;;;17.03;nan;101152.31;5061346;28;19924;-84
2022/07/11 03:12:28;;;;;;;;;;;;;;;17.02;nan;101145.31;5057474;28;19920;-84
2022/07/11 03:14:54;;;;;;;;;;;;;;;17.00;nan;101150.03;5060950;28;19920;-84
2022/07/11 03:17:19;;;;;;;;;;;;;;;16.97;nan;101148.50;5079969;28;19920;-84
2022/07/11 03:19:46;;;;;;;;;;;;;;;16.97;nan;101146.69;5061919;28;19927;-84
2022/07/11 03:22:12;;;;;;;;;;;;;;;17.00;nan;101145.50;5060986;28;20025;-84
2022/07/11 03:24:37;;;;;;;;;;;;;;;17.00;nan;101150.84;5058904;28;19928;-84
2022/07/11 03:27:03;;;;;;;;;;;;;;;17.03;nan;101153.16;5049546;28;20559;-84
2022/07/11 03:29:28;;;;;;;;;;;;;;;17.07;nan;101153.63;5079775;28;19923;-84
2022/07/11 03:31:53;;;;;;;;;;;;;;;17.09;nan;101152.44;5054167;28;20057;-84
2022/07/11 03:34:19;;;;;;;;;;;;;;;17.11;nan;101150.44;5064070;28;19965;-84
2022/07/11 03:36:46;;;;;;;;;;;;;;;17.13;nan;101155.56;5062137;28;20429;-84
2022/07/11 03:39:11;;;;;;;;;;;;;;;17.13;nan;101150.22;5058819;28;19938;-84
2022/07/11 03:41:36;;;;;;;3.30;2.78;;;;;;;17.19;nan;101154.88;5076603;28;19920;-84
2022/07/11 03:44:02;;;;;;;;;;;;;;;17.16;nan;101158.72;5056573;28;20120;-84
2022/07/11 03:46:27;;;;;;;;;;;;;;;17.16;nan;101155.22;5067667;28;20079;-84
2022/07/11 03:48:52;;;;;;;;;;;;;;;17.18;nan;101161.22;5072675;28;19924;-84
2022/07/11 03:51:17;;;;;;;;;;;;;;;17.20;nan;101154.66;5068453;28;19923;-84
2022/07/11 03:53:43;;;;;;;2.20;2.00;;;;;;;17.25;nan;101146.13;5055078;28;19916;-84
2022/07/11 03:56:08;;;;;;;;;;;;;;;17.27;nan;101151.28;5047326;28;20029;-84
2022/07/11 03:58:34;;;;;;;2.20;2.00;;;;;;;17.29;nan;101157.28;5062271;28;20421;-84
2022/07/11 04:00:59;;;;;;;;;;;;;;;17.29;nan;101149.28;5076050;28;20040;-84
2022/07/11 04:03:25;;;;;;;;;;;;;;;17.30;nan;101161.63;5055395;28;19917;-84
2022/07/11 04:05:50;;;;;;;;;;;;;;;17.31;nan;101147.25;5060547;28;19986;-84
2022/07/11 04:08:16;;;;;;;;;;;;;;;17.33;nan;101145.25;5073456;28;19927;-84
2022/07/11 04:10:41;;;;;;;;;;;;;;;17.33;nan;101143.38;5065339;28;20363;-84
2022/07/11 04:13:06;;;;;;;;;;;;;;;17.33;nan;101145.25;5060460;28;19920;-84
2022/07/11 04:15:31;;;;;;;;;;;;;;;17.34;nan;101144.22;5046092;28;19916;-84
2022/07/11 04:17:56;;;;;;;;;;;;;;;17.37;nan;101144.66;5062704;28;19912;-84
2022/07/11 04:20:22;;;;;;;;;;;;;;;17.37;nan;101150.00;5061719;28;20363;-84
2022/07/11 04:22:47;;;;;;;;;;;;;;;17.41;nan;101147.81;5060886;28;19920;-84
2022/07/11 04:25:12;;;;;;;;;;;;;;;17.45;nan;101140.25;5066059;28;19968;-84
2022/07/11 04:27:37;;;;;;;;;;;;;;;17.42;nan;101138.78;5043200;28;19976;-84
2022/07/11 04:30:03;;;;;;;;;;;;;;;17.43;nan;101142.31;5060292;28;20007;-84
2022/07/11 04:32:28;;;;;;;;;;;;;;;17.43;nan;101139.63;5067797;28;19917;-84
2022/07/11 04:34:54;;;;;;;;;;;;;;;17.50;nan;101135.22;5061730;28;19923;-84
2022/07/11 04:37:19;;;;;;;;;;;;;;;17.53;nan;101149.03;5075876;28;19920;-84
2022/07/11 04:39:46;;;;;;;;;;;;;;;17.59;nan;101142.13;5067594;28;20015;-84
2022/07/11 04:42:11;;;;;;;;;;;;;;;17.64;nan;101139.75;5058759;28;20382;-84
2022/07/11 04:44:38;;;;;;;;;;;;;;;17.65;nan;101141.41;5054781;28;19916;-84
2022/07/11 04:47:03;;;;;;;;;;;;;;;17.64;nan;101139.75;5060363;28;20395;-84
2022/07/11 04:49:29;;;;;;;;;;;;;;;17.68;nan;101143.69;5060398;28;19916;-84
2022/07/11 04:51:54;;;;;;;;;;;;;;;17.66;nan;101142.22;5065274;28;19925;-84
2022/07/11 04:54:19;;;;;;;;;;;;;;;17.71;nan;101140.69;5076859;28;19986;-84
2022/07/11 04:56:45;;;;;;;;;;;;;;;17.81;nan;101151.13;5058424;28;19916;-84
2022/07/11 04:59:10;;;;;;;;;;;;;;;17.89;nan;101150.19;5073113;28;19924;-84
2022/07/11 05:01:35;;;;;;;;;;;;;;;17.96;nan;101145.78;5056627;28;19919;-84
2022/07/11 05:04:00;;;;;;;;;;;;;;;18.04;nan;101154.56;5069728;28;19951;-84
2022/07/11 05:06:26;;;;;;;;;;;;;;;18.16;nan;101154.06;5061153;28;19923;-84
2022/07/11 05:08:54;;;;;;;;;;;;;;;18.25;nan;101161.78;5059868;28;19912;-84
2022/07/11 05:11:19;;;;;;;;;;;;;;;18.36;nan;101160.50;5079228;28;19978;-84
2022/07/11 05:13:44;;;;;;;;;;;;;;;18.46;nan;101162.88;5061053;28;19912;-84
2022/07/11 05:16:09;;;;;;;;;;;;;;;18.57;nan;101154.38;5078248;28;19927;-84
2022/07/11 05:18:35;;;;;;;1.70;1.48;;;;;;;18.69;nan;101157.38;5060657;28;19920;-84
2022/07/11 05:21:00;;;;;;;;;;;;;;;18.82;nan;101156.72;5060374;28;20043;-84
2022/07/11 05:23:25;;;;;;;;;;;;;;;18.92;nan;101149.16;5074620;28;19923;-84
2022/07/11 05:25:50;;;;;;;;;;;;;;;19.04;nan;101152.16;5073662;28;20306;-84
2022/07/11 05:28:16;;;;;;;;;;;;;;;19.17;nan;101156.84;5058864;28;19932;-84
2022/07/11 05:30:41;;;;;;;2.40;1.43;;;;;;;19.25;nan;101154.84;5053906;28;19924;-84
2022/07/11 05:33:06;;;;;;;;;;;;;;;19.27;nan;101162.69;5073739;28;20556;-84
2022/07/11 05:35:31;;;;;;;2.00;1.30;;;;;;;19.44;nan;101168.59;5078734;28;19940;-84
2022/07/11 05:37:57;;;;;;;2.30;1.40;;;;;;;19.56;nan;101167.03;5049881;28;20037;-84
2022/07/11 05:40:22;;;;;;;2.15;1.55;;;;;;;19.70;nan;101168.00;5051763;28;20102;-84
2022/07/11 05:42:47;;;;;;;3.28;1.42;;;;;;;19.81;nan;101172.81;5056527;28;20069;-84
2022/07/11 05:45:13;;;;;;;2.70;1.63;;;;;;;19.92;nan;101171.44;5058140;28;20110;-84
2022/07/11 05:47:38;;;;;;;3.88;2.20;;;;;;;19.90;nan;101171.66;5078712;28;20036;-84
2022/07/11 05:50:04;;;;;;;5.95;2.22;;;;;;;19.91;nan;101175.16;5044936;28;20045;-84
2022/07/11 05:52:30;;;;;;;2.70;2.20;;;;;;;20.15;nan;101182.72;5064424;28;20385;-84
2022/07/11 05:54:55;;;;;;;3.47;2.40;;;;;;;20.21;nan;101173.03;5039364;28;20420;-84
2022/07/11 05:57:20;;;;;;;2.60;1.95;;;;;;;20.19;nan;101174.25;5041324;28;20053;-84
2022/07/11 05:59:46;;;;;;;3.07;2.27;;;;;;;20.28;nan;101178.44;5058881;28;20033;-84
2022/07/11 06:02:12;;;;;;;2.20;1.70;;;;;;;20.43;nan;101176.44;5056138;28;20634;-84
2022/07/11 06:04:37;;;;;;;2.65;1.77;;;;;;;20.90;nan;101184.66;5057088;28;20386;-84
2022/07/11 06:07:03;;;;;;;3.75;1.67;;;;;;;20.91;nan;101176.41;5056488;28;20445;-84
2022/07/11 06:09:29;;;;;;;5.30;1.65;;;;;;;20.97;nan;101180.97;5059097;28;20033;-84
2022/07/11 06:11:55;;;;;;;1.90;1.30;;;;;;;21.09;nan;101175.78;5054347;28;20044;-84
2022/07/11 06:14:20;;;;;;;3.30;1.90;;;;;;;21.11;nan;101181.78;5080606;28;20036;-85
2022/07/11 06:16:46;;;;;;;2.67;1.50;;;;;;;21.18;nan;101187.19;5063422;28;20043;-84
2022/07/11 06:19:12;;;;;;;2.22;1.50;;;;;;;21.32;nan;101179.94;5064160;28;20028;-84
2022/07/11 06:21:37;;;;;;;2.22;1.55;;;;;;;21.36;nan;101171.25;5062454;28;20033;-84
2022/07/11 06:24:03;;;;;;;2.97;1.77;;;;;;;21.52;nan;101175.41;5055212;28;20036;-84
2022/07/11 06:26:28;;;;;;;2.90;1.65;;;;;;;21.61;nan;101170.66;5064949;28;20028;-85
2022/07/11 06:28:53;;;;;;;2.97;1.55;;;;;;;21.73;nan;101179.72;5081798;28;20032;-84
2022/07/11 06:31:21;;;;;;;2.30;1.50;;;;;;;21.90;nan;101180.13;5076051;28;20036;-84
2022/07/11 06:33:48;;;;;;;2.10;1.58;;;;;;;22.12;nan;101169.06;5074693;28;20072;-84
2022/07/11 06:36:14;;;;;;;3.92;1.80;;;;;;;22.18;nan;101179.84;5072068;28;20037;-84
2022/07/11 06:38:40;;;;;;;2.13;1.58;;;;;;;22.26;nan;101176.94;5055740;28;20504;-84
2022/07/11 06:41:06;;;;;;;2.35;1.60;;;;;;;22.31;nan;101176.31;5073454;28;20036;-84
2022/07/11 06:43:32;;;;;;;2.60;1.40;;;;;;;22.33;nan;101178.78;5057497;28;20028;-84
2022/07/11 06:45:58;;;;;;;1.73;1.23;;;;;;;22.45;nan;101180.59;5070686;28;20032;-84
2022/07/11 06:48:23;;;;;;;2.85;1.50;;;;;;;22.57;nan;101175.38;5069986;28;20040;-84
2022/07/11 06:50:49;;;;;;;1.92;1.38;;;;;;;22.56;nan;101178.25;5060481;28;20037;-84
2022/07/11 06:53:14;;;;;;;2.58;1.58;;;;;;;22.56;nan;101172.88;5057773;28;20463;-84
2022/07/11 06:55:39;;;;;;;3.22;1.90;;;;;;;22.60;nan;101176.81;5060250;28;20040;-84
2022/07/11 06:58:06;;;;;;;3.33;1.80;;;;;;;22.59;nan;101170.56;5054677;28;20032;-84
2022/07/11 07:00:31;;;;;;;3.30;1.70;;;;;;;22.51;nan;101170.81;5057292;28;20052;-84
2022/07/11 07:02:58;;;;;;;2.33;1.17;;;;;;;22.62;nan;101172.84;5067348;28;20034;-84
2022/07/11 07:05:24;;;;;;;2.30;1.20;;;;;;;22.80;nan;101168.59;5055768;28;20032;-84
2022/07/11 07:07:53;;;;;;;2.58;1.42;;;;;;;22.90;nan;101166.22;5051626;28;20051;-84
2022/07/11 07:10:19;;;;;;;3.22;2.10;;;;;;;23.01;nan;101172.84;5069279;28;20029;-84
2022/07/11 07:12:45;;;;;;;2.35;1.60;;;;;;;23.02;nan;101171.78;5074396;28;20388;-84
2022/07/11 07:15:11;;;;;;;2.67;1.58;;;;;;;23.18;nan;101170.44;5054964;28;20055;-84
2022/07/11 07:17:37;;;;;;;1.92;1.33;;;;;;;23.39;nan;101172.75;5072495;28;20163;-84
2022/07/11 07:20:04;;;;;;;2.42;1.50;;;;;;;23.65;nan;101176.25;5073302;28;20032;-84
2022/07/11 07:22:30;;;;;;;2.95;1.20;;;;;;;23.75;nan;101168.50;5051009;28;20388;-84
2022/07/11 07:24:55;;;;;;;3.40;1.52;;;;;;;23.74;nan;101164.97;5059054;28;20043;-84
2022/07/11 07:27:20;;;;;;;2.75;1.50;;;;;;;23.96;nan;101172.63;5053516;28;20037;-84
2022/07/11 07:29:47;;;;;;;2.75;1.50;;;;;;;24.02;nan;101171.72;5058502;28;20507;-84
2022/07/11 07:32:12;;;;;;;6.22;1.77;;;;;;;24.10;nan;101173.31;5074309;28;20147;-84
2022/07/11 07:34:38;;;;;;;3.03;1.60;;;;;;;24.12;nan;101176.59;5053831;28;20535;-84
2022/07/11 07:37:03;;;;;;;3.47;1.63;;;;;;;24.42;nan;101179.34;5069089;28;20040;-84
2022/07/11 07:39:28;;;;;;;4.18;1.58;;;;;;;24.73;nan;101178.31;5053532;28;20124;-84
2022/07/11 07:41:55;;;;;;;2.97;1.90;;;;;;;25.11;nan;101185.25;5049708;28;20044;-84
2022/07/11 07:44:20;;;;;;;4.25;1.52;;;;;;;25.42;nan;101177.91;5055187;28;20453;-84
2022/07/11 07:46:46;;;;;;;4.10;1.65;;;;;;;25.63;nan;101180.03;5067220;28;20041;-84
2022/07/11 07:49:11;;;;;;;3.00;1.50;;;;;;;26.28;nan;101181.72;5058154;28;20066;-84
2022/07/11 07:51:37;;;;;;;4.38;1.80;;;;;;;26.53;nan;101174.31;5059353;28;20036;-84
2022/07/11 07:54:02;;;;;;;;;;;;;;;26.96;nan;101164.81;5076115;28;20033;-85
2022/07/11 07:56:28;;;;;;;3.53;1.33;;;;;;;27.93;nan;101063.84;5062257;28;20446;-85
2022/07/11 07:58:53;;;;;;;3.58;1.58;;;;;;;28.33;nan;101127.94;5056796;28;20271;-84
2022/07/11 08:01:40;;;;;;;3.75;1.55;;;;;;;28.15;nan;101150.88;5072022;28;20128;-85
2022/07/11 08:04:07;;;;;;;3.10;1.45;;;;;;;27.63;nan;101172.97;5072136;28;20035;-84
2022/07/11 08:06:34;;;;;;;3.30;1.60;;;;;;;27.07;nan;101169.34;5074978;28;20032;-84
2022/07/11 08:09:00;;;;;;;1.67;1.13;;;;;;;26.62;nan;101167.47;5072541;28;20055;-84
2022/07/11 08:11:26;;;;;;;2.90;1.40;;;;;;;26.21;nan;101166.66;5058484;28;20028;-83
2022/07/11 08:13:52;;;;;;;3.67;1.40;;;;;;;25.78;nan;101170.59;5058846;28;20043;-83
2022/07/11 08:16:19;;;;;;;2.28;1.40;;;;;;;25.63;nan;101168.38;5059501;28;20108;-83
2022/07/11 08:18:44;;;;;;;3.00;1.40;;;;;;;25.51;nan;101162.16;5057826;28;20127;-84
2022/07/11 08:21:09;;;;;;;4.47;1.60;;;;;;;25.60;nan;101166.97;5053191;28;20163;-85
2022/07/11 08:23:35;;;;;;;1.70;1.00;;;;;;;26.12;nan;101157.25;5055060;28;20047;-85
2022/07/11 08:26:01;;;;;;;2.95;1.30;;;;;;;26.90;nan;101156.59;5074881;28;20124;-85
2022/07/11 08:28:26;;;;;;;2.08;1.30;;;;;;;27.67;nan;101162.41;5072865;28;20124;-85
2022/07/11 08:30:52;;;;;;;1.83;0.98;;;;;;;28.38;nan;101152.47;5056084;28;20046;-85
2022/07/11 08:33:17;;;;;;;3.60;1.20;;;;;;;29.17;nan;101166.59;5056409;28;20487;-86
2022/07/11 08:35:46;;;;;;;1.88;0.90;;;;;;;30.00;nan;101166.03;5066095;28;20402;-85
2022/07/11 08:38:11;;;;;;;2.08;1.00;;;;;;;29.67;nan;101159.06;5073354;28;20435;-85
2022/07/11 08:40:39;;;;;;;2.47;0.98;;;;;;;28.98;nan;101163.41;5056989;28;20029;-85
2022/07/11 08:43:14;;;;;;;1.17;0.80;;;;;;;28.48;nan;101159.94;5069786;28;20032;-85
2022/07/11 08:45:45;;;;;;;2.47;1.00;;;;;;;28.51;nan;101161.34;5055634;28;20040;-85
2022/07/11 08:48:12;;;;;;;3.80;1.52;;;;;;;28.13;nan;101160.34;5055452;28;20040;-85
2022/07/11 08:50:37;;;;;;;2.20;1.30;;;;;;;27.78;nan;101158.78;5057246;28;20583;-86
2022/07/11 08:53:04;;;;;;;1.75;1.05;;;;;;;27.63;nan;101159.41;5057484;22;20068;-67
2022/07/11 08:55:30;;;;;;;2.35;1.20;;;;;;;27.17;nan;101165.97;5030063;28;20732;-67
2022/07/11 08:57:56;;;;;;;2.65;1.50;;;;;;;26.67;nan;101151.28;5035584;28;20113;-67
2022/07/11 09:00:22;;;;;;;2.50;1.45;;;;;;;26.28;nan;101161.94;5025612;28;20072;-68
2022/07/11 09:02:48;;;;;;;4.10;1.50;;;;;;;25.75;nan;101168.38;5028018;28;20117;-68
2022/07/11 09:05:14;;;;;;;3.67;1.40;;;;;;;25.40;nan;101161.91;5028007;28;20099;-67
2022/07/11 09:07:48;;;;;;;3.50;1.50;;;;;;;25.14;nan;101163.13;5027262;28;20069;-67
2022/07/11 09:10:14;;;;;;;2.97;1.23;;;;;;;25.13;nan;101163.38;5024716;28;20053;-68
2022/07/11 09:13:05;;;;;;;1.65;1.20;;;;;;;25.29;nan;101156.47;5026781;28;20034;-67
2022/07/11 09:15:36;;;;;;;2.50;1.30;;;;;;;25.36;nan;101157.19;5027940;28;20375;-67
2022/07/11 09:18:04;;;;;;;2.83;1.30;;;;;;;25.50;nan;101160.50;5026124;28;20041;-67
2022/07/11 09:26:34;;;;;;;2.83;1.45;;;;;;;26.13;nan;101156.22;5025179;28;20099;-70
2022/07/11 09:29:01;;;;;;;2.75;1.40;;;;;;;25.84;nan;101158.84;5026739;28;22282;-67
2022/07/11 09:31:31;;;;;;;3.83;1.45;;;;;;;25.61;nan;101152.34;5028348;28;20444;-67
2022/07/11 09:33:58;;;;;;;1.60;1.23;;;;;;;26.18;nan;101149.00;5025692;28;20032;-67
2022/07/11 09:36:33;;;;;;;2.97;1.20;;;;;;;27.54;nan;101160.88;5027112;28;20280;-67
2022/07/11 09:39:02;;;;;;;2.55;1.40;;;;;;;29.46;nan;101156.16;5025445;28;20033;-68
2022/07/11 09:41:32;;;;;;;3.03;1.20;;;;;;;30.14;nan;101161.72;5027944;28;20033;-71
2022/07/11 09:44:12;;;;;;;2.35;1.30;;;;;;;30.05;nan;101164.13;5027788;28;20037;-71
2022/07/11 09:46:38;;;;;;;3.80;1.60;;;;;;;29.31;nan;101159.59;5040246;28;20054;-70
2022/07/11 09:49:04;;;;;;;3.17;1.30;;;;;;;28.95;nan;101155.78;5029264;28;20107;-68
2022/07/11 09:51:39;;;;;;;4.47;1.52;;;;;;;28.74;nan;101161.00;5032911;28;20124;-68
2022/07/11 09:54:06;;;;;;;3.13;1.52;;;;;;;28.12;nan;101156.78;5034012;28;20029;-69
2022/07/11 09:56:39;;;;;;;2.85;1.40;;;;;;;27.61;nan;101158.81;5033671;28;20060;-70
2022/07/11 09:59:06;;;;;;;3.15;1.40;;;;;;;27.49;nan;101155.38;5031783;28;20424;-68
2022/07/11 10:01:33;;;;;;;2.47;1.10;;;;;;;27.39;nan;101149.78;5030499;28;20031;-70
2022/07/11 10:03:58;;;;;;;2.53;1.15;;;;;;;28.40;nan;101149.50;5029464;28;20026;-72
2022/07/11 10:06:24;;;;;;;1.55;0.80;;;;;;;29.33;nan;101152.00;5030585;28;20387;-70
2022/07/11 10:08:51;;;;;;;2.38;1.10;;;;;;;30.82;nan;101144.41;5033371;28;20576;-69
2022/07/11 10:11:16;;;;;;;1.65;0.88;;;;;;;32.15;nan;101146.91;5030713;28;20037;-70
2022/07/11 10:13:42;;;;;;;1.40;0.80;;;;;;;33.39;nan;101151.22;5029691;28;20120;-70
2022/07/11 10:16:17;;;;;;;1.85;0.88;;;;;;;33.61;nan;101156.22;5031010;28;20033;-70
2022/07/11 10:19:01;;;;;;;0.80;0.60;;;;;;;34.48;nan;101152.34;5031155;28;20394;-70
2022/07/11 10:21:50;;;;;;;1.90;1.00;;;;;;;34.59;nan;101150.28;5029998;28;20404;-70
2022/07/11 10:24:32;;;;;;;1.42;0.80;;;;;;;34.28;nan;101144.44;5026919;28;20045;-70
2022/07/11 10:27:09;;;;;;;2.22;1.00;;;;;;;32.91;nan;101133.84;5030197;28;20409;-70
2022/07/11 10:29:40;;;;;;;2.15;0.95;;;;;;;32.69;nan;101148.00;5018348;28;20044;-70
2022/07/11 10:32:12;;;;;;;1.50;0.80;;;;;;;31.98;nan;101132.78;5028466;28;20044;-69
2022/07/11 10:34:39;;;;;;;2.15;0.98;;;;;;;32.16;nan;101135.72;5013678;28;20287;-69
2022/07/11 10:37:07;;;;;;;1.55;0.90;;;;;;;33.90;nan;101141.63;5028290;28;20560;-70
2022/07/11 10:39:35;;;;;;;1.92;1.10;;;;;;;34.59;nan;101142.03;5029845;28;20034;-69
2022/07/11 10:42:02;;;;;;;3.60;1.20;;;;;;;33.37;nan;101152.59;5028473;28;20042;-70
2022/07/11 10:44:47;;;;;;;3.08;1.40;;;;;;;32.14;nan;101142.56;5029731;28;20512;-69
2022/07/11 10:47:35;;;;;;;2.72;1.00;;;;;;;31.43;nan;101133.50;5031976;28;20033;-70
2022/07/11 10:50:07;;;;;;;1.95;0.90;;;;;;;31.13;nan;101136.25;5010596;28;20030;-69
2022/07/11 10:52:34;;;;;;;1.85;1.00;;;;;;;31.44;nan;101146.06;5023119;28;20678;-69
2022/07/11 10:55:22;;;;;;;1.75;0.90;;;;;;;33.21;nan;101139.06;5030693;28;20053;-69
2022/07/11 10:58:21;;;;;;;2.13;1.00;;;;;;;34.86;nan;101137.78;5028520;28;20037;-70
2022/07/11 11:00:49;;;;;;;2.10;0.80;;;;;;;35.33;nan;101135.88;5029493;28;20045;-70
2022/07/11 11:03:17;;;;;;;2.13;1.00;;;;;;;34.20;nan;101137.66;5029942;28;20352;-70
2022/07/11 11:05:49;;;;;;;3.13;1.30;;;;;;;33.18;nan;101138.81;5012229;28;20057;-71
2022/07/11 11:08:36;;;;;;;2.60;1.33;;;;;;;32.02;nan;101136.59;5012515;28;20124;-71
2022/07/11 11:11:35;;;;;;;1.60;1.10;;;;;;;31.70;nan;101137.78;5026029;28;20041;-71
2022/07/11 11:14:15;;;;;;;3.72;1.20;;;;;;;31.44;nan;101139.78;5028440;28;20033;-71
2022/07/11 11:16:41;;;;;;;2.65;1.00;;;;;;;31.14;nan;101130.50;5027851;28;20049;-71
2022/07/11 11:19:06;;;;;;;2.40;0.90;;;;;;;31.20;nan;101128.59;5028782;28;20037;-71
2022/07/11 11:21:32;;;;;;;1.17;0.90;;;;;;;31.42;nan;101131.06;5014507;28;20125;-71
2022/07/11 11:24:02;;;;;;;2.35;1.20;;;;;;;31.47;nan;101131.84;5028126;28;20057;-71
2022/07/11 11:26:48;;;;;;;1.63;1.00;;;;;;;32.77;nan;101126.31;5030558;28;20041;-71
2022/07/11 11:29:19;;;;;;;1.50;0.90;;;;;;;35.16;nan;101125.47;5024035;28;20389;-71
2022/07/11 11:31:51;;;;;;;1.80;1.00;;;;;;;36.48;nan;101123.84;5028460;28;20033;-71
2022/07/11 11:34:17;;;;;;;1.90;1.05;;;;;;;36.79;nan;101112.06;5013319;28;20037;-69
2022/07/11 11:36:42;;;;;;;3.13;1.00;;;;;;;36.32;nan;101117.88;5027963;28;20041;-70
2022/07/11 11:39:08;;;;;;;2.85;1.20;;;;;;;36.48;nan;101126.59;5013692;28;20800;-70
2022/07/11 11:41:33;;;;;;;2.20;1.20;;;;;;;34.51;nan;101119.94;5029381;28;20115;-70
2022/07/11 11:44:00;;;;;;;2.40;1.02;;;;;;;34.29;nan;101129.59;5027917;28;20034;-70
2022/07/11 11:46:28;;;;;;;3.70;1.15;;;;;;;33.65;nan;101130.97;5028063;28;20110;-69
2022/07/11 11:48:57;;;;;;;2.97;1.27;;;;;;;32.15;nan;101123.13;5027974;28;20030;-69
2022/07/11 11:51:23;;;;;;;2.20;1.33;;;;;;;31.03;nan;101113.31;5028650;28;20128;-70
2022/07/11 11:53:54;;;;;;;1.73;1.10;;;;;;;30.50;nan;101114.63;5031540;28;20498;-69
2022/07/11 11:56:28;;;;;;;2.83;1.30;;;;;;;30.21;nan;101115.91;5026072;28;20037;-69
2022/07/11 11:58:56;;;;;;;2.17;1.20;;;;;;;30.21;nan;101118.63;5020805;28;20065;-69
2022/07/11 12:01:26;;;;;;;3.50;1.48;;;;;;;29.95;nan;101122.38;5006791;28;20107;-70
2022/07/11 12:03:59;;;;;;;2.33;1.58;;;;;;;29.55;nan;101110.16;5007550;28;20052;-69
2022/07/11 12:06:28;;;;;;;2.03;1.40;;;;;;;29.26;nan;101115.19;5025696;28;20034;-69